createdAt,value
2022-10-22T00:02:00.186Z,94.60
2022-10-22T00:04:49.297Z,94.60
2022-10-22T00:07:36.486Z,94.60
2022-10-22T00:10:24.182Z,94.60
2022-10-22T00:13:12.090Z,94.60
2022-10-22T00:15:59.395Z,94.60
2022-10-22T00:18:46.756Z,94.60
2022-10-22T00:21:35.239Z,94.60
2022-10-22T00:24:22.437Z,94.60
2022-10-22T00:27:11.416Z,94.60
2022-10-22T00:29:58.952Z,94.60
2022-10-22T00:32:45.932Z,94.60
2022-10-22T00:35:32.834Z,94.70
2022-10-22T00:38:21.181Z,94.70
2022-10-22T00:41:08.325Z,94.80
2022-10-22T00:43:58.822Z,94.80
2022-10-22T00:46:46.023Z,94.80
2022-10-22T00:49:33.952Z,94.80
2022-10-22T00:52:21.435Z,95.00
2022-10-22T00:55:11.216Z,94.90
2022-10-22T00:58:00.416Z,94.90
2022-10-22T01:00:47.727Z,95.00
2022-10-22T01:03:34.834Z,95.10
2022-10-22T01:06:26.390Z,95.10
2022-10-22T01:09:22.022Z,95.20
2022-10-22T01:12:19.736Z,95.30
2022-10-22T01:15:17.589Z,95.40
2022-10-22T01:18:10.441Z,95.40
2022-10-22T01:21:09.023Z,95.50
2022-10-22T01:24:16.701Z,95.50
2022-10-22T01:27:09.202Z,95.50
2022-10-22T01:30:03.071Z,95.60
2022-10-22T01:32:53.554Z,95.60
2022-10-22T01:35:45.746Z,95.70
2022-10-22T01:38:34.096Z,95.70
2022-10-22T01:41:21.283Z,95.80
2022-10-22T01:44:08.454Z,95.80
2022-10-22T01:47:12.976Z,95.80
2022-10-22T01:50:12.204Z,95.80
2022-10-22T01:53:15.139Z,95.70
2022-10-22T01:56:16.545Z,95.80
2022-10-22T01:59:09.667Z,95.90
2022-10-22T02:02:05.949Z,95.90
2022-10-22T02:04:59.899Z,95.90
2022-10-22T02:07:50.890Z,95.90
2022-10-22T02:10:40.091Z,95.90
2022-10-22T02:13:31.042Z,95.90
2022-10-22T02:16:24.096Z,95.90
2022-10-22T02:19:18.892Z,95.90
2022-10-22T02:22:06.373Z,96.00
2022-10-22T02:24:53.142Z,96.00
2022-10-22T02:27:46.645Z,96.00
2022-10-22T02:30:36.576Z,96.00
2022-10-22T02:33:27.396Z,96.10
2022-10-22T02:36:17.744Z,96.10
2022-10-22T02:39:05.721Z,96.10
2022-10-22T02:41:52.932Z,96.10
2022-10-22T02:44:40.457Z,96.20
2022-10-22T02:47:27.675Z,96.20
2022-10-22T02:50:15.267Z,96.20
2022-10-22T02:53:03.478Z,96.20
2022-10-22T02:55:50.694Z,96.30
2022-10-22T02:58:37.657Z,96.30
2022-10-22T03:01:24.871Z,96.30
2022-10-22T03:04:12.228Z,96.40
2022-10-22T03:06:59.202Z,96.40
2022-10-22T03:09:47.875Z,96.40
2022-10-22T03:12:35.059Z,96.50
2022-10-22T03:15:22.529Z,96.50
2022-10-22T03:18:09.754Z,96.50
2022-10-22T03:21:05.425Z,96.50
2022-10-22T03:23:53.690Z,96.90
2022-10-22T03:26:43.365Z,96.50
2022-10-22T03:29:32.866Z,96.50
2022-10-22T03:32:20.368Z,96.50
2022-10-22T03:35:08.010Z,96.40
2022-10-22T03:37:55.788Z,96.30
2022-10-22T03:40:44.666Z,96.30
2022-10-22T03:43:34.969Z,96.10
2022-10-22T03:46:22.409Z,96.00
2022-10-22T03:49:09.697Z,96.00
2022-10-22T03:51:56.595Z,95.90
2022-10-22T03:54:44.761Z,96.00
2022-10-22T03:57:31.765Z,96.00
2022-10-22T04:00:20.243Z,95.90
2022-10-22T04:03:07.273Z,95.90
2022-10-22T04:05:54.572Z,95.80
2022-10-22T04:08:43.162Z,95.70
2022-10-22T04:11:30.345Z,95.70
2022-10-22T04:14:17.503Z,95.70
2022-10-22T04:17:05.956Z,95.70
2022-10-22T04:19:53.276Z,95.70
2022-10-22T04:22:40.478Z,95.70
2022-10-22T04:25:27.306Z,95.70
2022-10-22T04:28:14.349Z,95.70
2022-10-22T04:31:01.456Z,95.70
2022-10-22T04:33:53.424Z,95.70
2022-10-22T04:36:40.639Z,95.70
2022-10-22T04:39:28.019Z,95.70
2022-10-22T04:42:15.183Z,95.70
2022-10-22T04:45:02.351Z,95.70
2022-10-22T04:47:49.822Z,95.70
2022-10-22T04:50:38.571Z,95.70
2022-10-22T04:53:26.342Z,95.80
2022-10-22T04:56:16.649Z,95.70
2022-10-22T04:59:06.833Z,95.70
2022-10-22T05:01:54.002Z,95.70
2022-10-22T05:04:41.574Z,95.60
2022-10-22T05:07:29.857Z,95.50
2022-10-22T05:10:17.245Z,95.50
2022-10-22T05:13:04.469Z,95.50
2022-10-22T05:15:51.668Z,95.50
2022-10-22T05:18:40.158Z,95.50
2022-10-22T05:21:28.025Z,95.40
2022-10-22T05:24:16.746Z,95.40
2022-10-22T05:27:04.228Z,95.40
2022-10-22T05:29:51.372Z,95.30
2022-10-22T05:32:38.931Z,95.30
2022-10-22T05:35:26.167Z,95.30
2022-10-22T05:38:13.990Z,95.30
2022-10-22T05:41:03.721Z,95.70
2022-10-22T05:43:51.043Z,95.40
2022-10-22T05:46:38.313Z,95.40
2022-10-22T05:49:25.411Z,95.40
2022-10-22T05:52:12.645Z,95.40
2022-10-22T05:55:00.273Z,95.50
2022-10-22T05:57:50.263Z,95.40
2022-10-22T06:00:37.442Z,95.50
2022-10-22T06:03:24.772Z,95.50
2022-10-22T06:06:20.315Z,95.40
2022-10-22T06:09:12.194Z,95.50
2022-10-22T06:11:59.913Z,95.40
2022-10-22T06:14:48.614Z,95.50
2022-10-22T06:17:36.205Z,95.40
2022-10-22T06:20:23.740Z,95.50
2022-10-22T06:23:10.856Z,95.40
2022-10-22T06:25:58.662Z,95.50
2022-10-22T06:28:46.081Z,95.50
2022-10-22T06:31:37.239Z,95.40
2022-10-22T06:34:24.219Z,95.40
2022-10-22T06:37:13.886Z,95.50
2022-10-22T06:40:01.342Z,95.50
2022-10-22T06:42:48.754Z,95.50
2022-10-22T06:45:35.990Z,95.50
2022-10-22T06:48:24.814Z,95.40
2022-10-22T06:51:13.193Z,95.50
2022-10-22T06:54:00.675Z,95.50
2022-10-22T06:56:47.902Z,95.50
2022-10-22T06:59:35.229Z,95.50
2022-10-22T07:02:22.533Z,95.50
2022-10-22T07:05:11.476Z,95.50
2022-10-22T07:07:58.596Z,95.40
2022-10-22T07:10:45.939Z,95.40
2022-10-22T07:13:33.256Z,95.40
2022-10-22T07:16:20.559Z,95.30
2022-10-22T07:19:07.667Z,95.30
2022-10-22T07:21:56.567Z,95.30
2022-10-22T07:24:43.687Z,95.30
2022-10-22T07:27:30.824Z,95.20
2022-10-22T07:30:18.008Z,95.20
2022-10-22T07:33:05.760Z,95.30
2022-10-22T07:35:52.793Z,95.30
2022-10-22T07:38:41.603Z,95.20
2022-10-22T07:41:30.829Z,95.30
2022-10-22T07:44:18.234Z,95.30
2022-10-22T07:47:05.480Z,95.30
2022-10-22T07:49:52.906Z,95.30
2022-10-22T07:52:40.488Z,95.30
2022-10-22T07:55:29.494Z,95.30
2022-10-22T07:58:17.107Z,95.30
2022-10-22T08:01:06.740Z,95.20
2022-10-22T08:03:54.154Z,95.20
2022-10-22T08:06:44.583Z,95.20
2022-10-22T08:09:35.219Z,95.20
2022-10-22T08:12:23.817Z,95.20
2022-10-22T08:15:11.582Z,95.20
2022-10-22T08:17:59.048Z,95.20
2022-10-22T08:20:46.989Z,95.60
2022-10-22T08:23:34.705Z,95.30
2022-10-22T08:26:21.869Z,95.60
2022-10-22T08:29:10.703Z,95.20
2022-10-22T08:31:58.062Z,95.10
2022-10-22T08:34:45.535Z,95.10
2022-10-22T08:37:32.653Z,95.10
2022-10-22T08:40:27.004Z,95.10
2022-10-22T08:43:36.534Z,95.20
2022-10-22T08:46:26.686Z,95.10
2022-10-22T08:49:21.934Z,95.10
2022-10-22T08:52:13.616Z,95.00
2022-10-22T08:55:03.197Z,95.00
2022-10-22T08:57:57.095Z,95.00
2022-10-22T09:00:47.809Z,94.90
2022-10-22T09:03:46.268Z,94.90
2022-10-22T09:06:38.089Z,95.00
2022-10-22T09:09:29.746Z,95.00
2022-10-22T09:12:20.301Z,94.90
2022-10-22T09:15:13.948Z,94.80
2022-10-22T09:18:18.800Z,94.80
2022-10-22T09:21:18.039Z,94.70
2022-10-22T09:24:13.381Z,94.80
2022-10-22T09:27:01.144Z,94.80
2022-10-22T09:29:49.612Z,94.60
2022-10-22T09:32:36.741Z,94.80
2022-10-22T09:35:25.662Z,94.60
2022-10-22T09:38:15.946Z,94.60
2022-10-22T09:41:05.347Z,94.70
2022-10-22T09:43:53.615Z,94.70
2022-10-22T09:46:44.183Z,94.50
2022-10-22T09:49:34.746Z,94.50
2022-10-22T09:52:29.807Z,94.30
2022-10-22T09:55:19.997Z,94.20
2022-10-22T09:58:13.457Z,94.00
2022-10-22T10:01:01.876Z,93.90
2022-10-22T10:03:51.437Z,93.90
2022-10-22T10:06:42.046Z,93.90
2022-10-22T10:09:31.078Z,93.80
2022-10-22T10:12:31.074Z,93.90
2022-10-22T10:15:24.770Z,93.60
2022-10-22T10:18:32.320Z,93.70
2022-10-22T10:21:28.262Z,93.60
2022-10-22T10:24:24.941Z,93.40
2022-10-22T10:27:21.931Z,93.40
2022-10-22T10:30:16.321Z,93.50
2022-10-22T10:33:19.195Z,93.20
2022-10-22T10:36:13.494Z,93.30
2022-10-22T10:39:06.423Z,93.10
2022-10-22T10:42:01.549Z,93.00
2022-10-22T10:44:59.863Z,93.00
2022-10-22T10:48:11.846Z,93.00
2022-10-22T10:51:07.736Z,93.10
2022-10-22T10:54:05.370Z,92.20
2022-10-22T10:56:56.940Z,92.30
2022-10-22T10:59:56.514Z,91.90
2022-10-22T11:03:03.579Z,92.10
2022-10-22T11:05:57.922Z,91.80
2022-10-22T11:08:50.330Z,91.60
2022-10-22T11:11:42.271Z,91.60
2022-10-22T11:14:37.135Z,91.30
2022-10-22T11:17:25.403Z,91.20
2022-10-22T11:20:19.077Z,91.00
2022-10-22T11:23:19.640Z,90.80
2022-10-22T11:26:15.462Z,90.90
2022-10-22T11:29:04.610Z,90.40
2022-10-22T11:31:55.950Z,90.20
2022-10-22T11:34:47.993Z,90.10
2022-10-22T11:37:39.206Z,88.90
2022-10-22T11:40:38.030Z,89.20
2022-10-22T11:43:30.962Z,87.70
2022-10-22T11:46:35.170Z,86.90
2022-10-22T11:49:27.693Z,86.90
2022-10-22T11:52:40.670Z,85.50
2022-10-22T11:55:34.974Z,85.20
2022-10-22T11:58:32.884Z,84.40
2022-10-22T12:01:30.748Z,82.40
2022-10-22T12:04:24.002Z,81.80
2022-10-22T12:07:33.098Z,81.90
2022-10-22T12:10:23.886Z,80.60
2022-10-22T12:13:26.687Z,80.40
2022-10-22T12:19:28.234Z,78.40
2022-10-22T12:22:19.461Z,79.10
2022-10-22T12:25:20.281Z,79.40
2022-10-22T12:28:14.169Z,79.10
2022-10-22T12:31:01.151Z,79.40
2022-10-22T12:33:49.504Z,79.00
2022-10-22T12:36:37.933Z,79.20
2022-10-22T12:39:28.961Z,79.10
2022-10-22T12:42:19.415Z,78.70
2022-10-22T12:45:08.437Z,78.40
2022-10-22T12:47:58.617Z,78.90
2022-10-22T12:50:49.916Z,78.70
2022-10-22T12:53:39.489Z,79.80
2022-10-22T12:56:29.619Z,78.70
2022-10-22T12:59:22.182Z,79.10
2022-10-22T13:02:21.372Z,78.70
2022-10-22T13:05:18.529Z,78.60
2022-10-22T13:08:11.092Z,78.70
2022-10-22T13:10:58.100Z,78.70
2022-10-22T13:13:47.210Z,78.10
2022-10-22T13:19:40.112Z,78.60
2022-10-22T13:22:30.330Z,79.10
2022-10-22T13:25:25.396Z,79.90
2022-10-22T13:28:21.926Z,79.50
2022-10-22T13:31:16.358Z,79.90
2022-10-22T13:34:09.952Z,79.60
2022-10-22T13:37:04.010Z,79.40
2022-10-22T13:39:51.510Z,79.20
2022-10-22T13:42:39.953Z,78.60
2022-10-22T13:45:27.727Z,78.60
2022-10-22T13:48:16.569Z,78.40
2022-10-22T13:51:03.475Z,78.00
2022-10-22T13:53:53.800Z,78.40
2022-10-22T13:56:40.943Z,78.30
2022-10-22T13:59:28.149Z,78.30
2022-10-22T14:02:16.601Z,78.40
2022-10-22T14:05:05.197Z,78.30
2022-10-22T14:07:53.564Z,77.50
2022-10-22T14:10:42.125Z,76.70
2022-10-22T14:13:29.035Z,76.30
2022-10-22T14:16:19.988Z,76.30
2022-10-22T14:19:11.468Z,76.50
2022-10-22T14:24:47.358Z,75.10
2022-10-22T14:27:35.979Z,74.30
2022-10-22T14:30:25.226Z,71.80
2022-10-22T14:36:02.690Z,67.60
2022-10-22T14:38:50.293Z,67.30
2022-10-22T14:41:38.843Z,65.80
2022-10-22T14:44:27.235Z,66.30
2022-10-22T14:47:14.423Z,66.40
2022-10-22T14:52:49.824Z,64.60
2022-10-22T14:55:36.866Z,65.30
2022-10-22T14:58:23.964Z,65.30
2022-10-22T15:01:12.644Z,66.00
2022-10-22T15:04:00.269Z,66.40
2022-10-22T15:06:47.167Z,65.80
2022-10-22T15:09:34.115Z,66.00
2022-10-22T15:12:21.069Z,66.20
2022-10-22T15:15:09.287Z,66.40
2022-10-22T15:17:58.023Z,66.40
2022-10-22T15:20:45.313Z,66.70
2022-10-22T15:23:32.677Z,66.80
2022-10-22T15:26:20.002Z,67.30
2022-10-22T15:29:07.371Z,67.70
2022-10-22T15:31:58.053Z,67.60
2022-10-22T15:34:46.324Z,67.70
2022-10-22T15:37:33.233Z,68.10
2022-10-22T15:40:20.212Z,69.50
2022-10-22T15:43:07.355Z,70.30
2022-10-22T15:46:11.130Z,71.00
2022-10-22T15:48:58.066Z,71.70
2022-10-22T15:51:46.938Z,72.10
2022-10-22T15:54:34.959Z,72.90
2022-10-22T15:57:22.271Z,73.80
2022-10-22T16:00:10.749Z,74.50
2022-10-22T16:03:02.361Z,75.40
2022-10-22T16:05:54.502Z,75.80
2022-10-22T16:08:43.373Z,77.10
2022-10-22T16:11:32.473Z,76.50
2022-10-22T16:14:22.012Z,76.90
2022-10-22T16:17:09.341Z,77.30
2022-10-22T16:19:56.640Z,77.70
2022-10-22T16:22:44.247Z,78.10
2022-10-22T16:25:38.382Z,78.40
2022-10-22T16:28:25.852Z,78.70
2022-10-22T16:31:14.977Z,78.90
2022-10-22T16:34:03.143Z,81.20
2022-10-22T16:39:39.914Z,80.00
2022-10-22T16:42:28.265Z,80.10
2022-10-22T16:48:03.610Z,80.70
2022-10-22T16:50:50.900Z,80.90
2022-10-22T16:53:38.475Z,86.30
2022-10-22T16:56:26.874Z,85.10
2022-10-22T16:59:15.277Z,83.30
2022-10-22T17:04:49.535Z,90.50
2022-10-22T17:07:36.931Z,91.40
2022-10-22T17:10:24.347Z,83.00
2022-10-22T17:13:12.266Z,83.20
2022-10-22T17:16:04.711Z,83.30
2022-10-22T17:18:54.064Z,83.50
2022-10-22T17:21:41.297Z,83.70
2022-10-22T17:24:28.394Z,84.00
2022-10-22T17:27:15.949Z,84.20
2022-10-22T17:30:03.371Z,84.40
2022-10-22T17:32:51.971Z,84.50
2022-10-22T17:35:41.691Z,84.70
2022-10-22T17:38:29.670Z,85.00
2022-10-22T17:41:18.787Z,85.10
2022-10-22T17:44:09.219Z,85.40
2022-10-22T17:46:57.166Z,85.70
2022-10-22T17:49:45.686Z,85.70
2022-10-22T17:52:33.148Z,86.10
2022-10-22T17:55:20.336Z,86.40
2022-10-22T17:58:07.629Z,86.60
2022-10-22T18:00:55.162Z,86.90
2022-10-22T18:03:42.585Z,86.30
2022-10-22T18:06:32.086Z,87.40
2022-10-22T18:09:20.529Z,87.70
2022-10-22T18:12:08.708Z,89.80
2022-10-22T18:14:55.487Z,95.10
2022-10-22T18:17:42.789Z,99.80
2022-10-22T18:20:30.315Z,96.40
2022-10-22T18:23:19.638Z,99.90
2022-10-22T18:26:07.040Z,89.20
2022-10-22T18:28:54.456Z,88.50
2022-10-22T18:31:41.743Z,88.60
2022-10-22T18:34:30.685Z,88.90
2022-10-22T18:37:17.573Z,89.00
2022-10-22T18:40:09.550Z,89.10
2022-10-22T18:42:58.855Z,89.30
2022-10-22T18:45:46.958Z,89.40
2022-10-22T18:48:35.176Z,89.60
2022-10-22T18:51:22.221Z,89.80
2022-10-22T18:54:22.578Z,90.00
2022-10-22T18:57:12.038Z,90.00
2022-10-22T18:59:59.648Z,90.10
2022-10-22T19:02:47.199Z,90.20
2022-10-22T19:05:35.342Z,90.20
2022-10-22T19:08:22.911Z,90.20
2022-10-22T19:11:15.660Z,90.20
2022-10-22T19:14:04.449Z,90.40
2022-10-22T19:16:51.602Z,90.40
2022-10-22T19:19:38.851Z,90.50
2022-10-22T19:22:26.074Z,90.50
2022-10-22T19:25:13.543Z,90.60
2022-10-22T19:28:00.566Z,90.70
2022-10-22T19:30:50.015Z,90.80
2022-10-22T19:33:37.586Z,90.90
2022-10-22T19:36:27.629Z,91.00
2022-10-22T19:39:17.616Z,91.20
2022-10-22T19:42:05.057Z,91.20
2022-10-22T19:44:52.614Z,91.20
2022-10-22T19:47:42.391Z,91.40
2022-10-22T19:50:29.648Z,91.30
2022-10-22T19:53:16.478Z,91.30
2022-10-22T19:56:05.970Z,91.40
2022-10-22T19:58:53.351Z,91.40
2022-10-22T20:01:40.743Z,91.50
2022-10-22T20:04:29.330Z,91.60
2022-10-22T20:07:16.491Z,91.60
2022-10-22T20:10:03.882Z,91.60
2022-10-22T20:12:52.674Z,91.60
2022-10-22T20:15:39.781Z,91.60
2022-10-22T20:18:27.044Z,91.60
2022-10-22T20:21:19.379Z,91.60
2022-10-22T20:24:06.971Z,91.70
2022-10-22T20:26:53.963Z,91.70
2022-10-22T20:29:41.312Z,91.80
2022-10-22T20:32:28.621Z,91.90
2022-10-22T20:35:16.728Z,92.00
2022-10-22T20:38:06.029Z,92.00
2022-10-22T20:41:01.448Z,92.20
2022-10-22T20:43:49.870Z,92.20
2022-10-22T20:46:39.753Z,92.30
2022-10-22T20:49:27.020Z,92.30
2022-10-22T20:52:14.470Z,92.40
2022-10-22T20:55:03.165Z,92.50
2022-10-22T20:57:50.274Z,92.40
2022-10-22T21:00:39.369Z,92.50
2022-10-22T21:03:26.812Z,92.50
2022-10-22T21:06:13.782Z,92.70
2022-10-22T21:09:01.259Z,92.70
2022-10-22T21:11:50.044Z,92.80
2022-10-22T21:14:36.971Z,92.90
2022-10-22T21:17:24.212Z,92.80
2022-10-22T21:22:58.533Z,92.90
2022-10-22T21:25:55.778Z,93.00
2022-10-22T21:28:44.330Z,93.00
2022-10-22T21:31:31.707Z,93.10
2022-10-22T21:34:18.888Z,93.10
2022-10-22T21:37:08.302Z,93.20
2022-10-22T21:39:55.707Z,93.20
2022-10-22T21:42:42.978Z,93.60
2022-10-22T21:45:31.689Z,93.20
2022-10-22T21:48:18.899Z,93.20
2022-10-22T21:51:09.581Z,93.20
2022-10-22T21:53:57.234Z,93.20
2022-10-22T21:56:44.638Z,93.20
2022-10-22T21:59:32.603Z,93.30
2022-10-22T22:05:08.882Z,93.20
2022-10-22T22:07:55.882Z,93.20
2022-10-22T22:10:43.744Z,93.30
2022-10-22T22:13:31.074Z,93.20
2022-10-22T22:16:22.550Z,93.20
2022-10-22T22:19:13.939Z,93.20
2022-10-22T22:22:01.273Z,93.20
2022-10-22T22:24:48.615Z,93.30
2022-10-22T22:27:36.104Z,93.40
2022-10-22T22:30:23.467Z,93.40
2022-10-22T22:33:10.816Z,93.40
2022-10-22T22:36:01.313Z,93.40
2022-10-22T22:38:48.639Z,93.30
2022-10-22T22:41:36.218Z,93.30
2022-10-22T22:44:23.439Z,93.20
2022-10-22T22:47:11.048Z,93.20
2022-10-22T22:49:58.318Z,93.20
2022-10-22T22:52:46.859Z,93.10
2022-10-22T22:55:33.795Z,93.20
2022-10-22T22:58:20.623Z,93.20
2022-10-22T23:01:13.622Z,93.20
2022-10-22T23:04:02.489Z,93.20
2022-10-22T23:06:49.911Z,93.20
2022-10-22T23:09:38.191Z,93.20
2022-10-22T23:12:25.442Z,93.10
2022-10-22T23:15:13.167Z,93.20
2022-10-22T23:18:00.412Z,93.20
2022-10-22T23:20:47.502Z,93.10
2022-10-22T23:23:35.897Z,93.20
2022-10-22T23:26:26.831Z,93.10
2022-10-22T23:29:16.354Z,93.00
2022-10-22T23:32:06.459Z,93.00
2022-10-22T23:34:53.846Z,93.00
2022-10-22T23:37:41.627Z,93.10
2022-10-22T23:40:28.860Z,93.30
2022-10-22T23:43:17.357Z,93.40
2022-10-22T23:46:05.360Z,93.30
2022-10-22T23:48:53.932Z,93.20
2022-10-22T23:51:41.658Z,93.20
2022-10-22T23:54:28.668Z,93.20
2022-10-22T23:57:15.856Z,93.10
